Time;durP1;ratioP1;P1;durP2;ratioP2;P2;SDS_P1;SDS_P2;PMS_P1;PMS_P2;Temp;Humidity;BMP_temperature;BMP_pressure;BME280_temperature;BME280_humidity;BME280_pressure;Samples;Min_cycle;Max_cycle;Signal;HPM_P1;HPM_P2
2023/08/22 00:00:14;;;;;;;9.52;4.97;;;;;;;19.87;81.55;101935.59;5101034;28;20035;-57
2023/08/22 00:02:40;;;;;;;9.43;5.55;;;;;;;19.94;81.72;101925.97;5092428;28;20096;-57
2023/08/22 00:05:07;;;;;;;9.95;5.50;;;;;;;19.91;81.90;101924.41;5090483;28;20032;-57
2023/08/22 00:07:33;;;;;;;7.45;5.20;;;;;;;19.89;82.11;101928.22;5090151;28;20027;-57
2023/08/22 00:09:58;;;;;;;6.97;5.13;;;;;;;19.83;82.15;101932.31;5092116;28;20039;-57
2023/08/22 00:12:24;;;;;;;7.57;5.32;;;;;;;19.88;82.29;101932.78;5091661;28;20024;-57
2023/08/22 00:14:50;;;;;;;8.27;5.53;;;;;;;19.88;82.39;101940.00;5091576;28;20109;-57
2023/08/22 00:17:16;;;;;;;7.90;5.22;;;;;;;19.83;82.44;101924.22;5109444;28;20114;-57
2023/08/22 00:19:42;;;;;;;8.50;5.40;;;;;;;19.87;82.42;101919.41;5110359;28;20074;-57
2023/08/22 00:22:07;;;;;;;10.55;5.18;;;;;;;19.87;82.40;101919.41;5111254;28;20504;-57
2023/08/22 00:24:32;;;;;;;6.60;5.43;;;;;;;19.80;83.06;101921.78;5108029;28;20043;-57
2023/08/22 00:26:58;;;;;;;9.85;5.38;;;;;;;19.85;82.63;101913.25;5105499;28;20064;-57
2023/08/22 00:29:23;;;;;;;7.10;5.03;;;;;;;19.83;82.65;101924.22;5103543;27;20046;-57
2023/08/22 00:31:51;;;;;;;9.35;5.28;;;;;;;19.76;83.09;101936.50;5095549;28;20403;-57
2023/08/22 00:34:17;;;;;;;9.80;5.15;;;;;;;19.69;83.62;101925.38;5093956;28;20020;-57
2023/08/22 00:36:42;;;;;;;10.05;5.03;;;;;;;19.79;83.03;101928.13;5105270;27;20028;-57
2023/08/22 00:39:07;;;;;;;7.70;5.35;;;;;;;19.73;83.89;101923.25;5109088;28;20059;-57
2023/08/22 00:41:33;;;;;;;7.60;5.43;;;;;;;19.74;84.06;101925.00;5095274;28;20481;-57
2023/08/22 00:43:59;;;;;;;7.30;4.85;;;;;;;19.69;84.00;101916.41;5114979;27;20042;-57
2023/08/22 00:46:30;;;;;;;9.80;5.15;;;;;;;19.63;84.30;101915.06;5099730;28;20720;-57
2023/08/22 00:48:56;;;;;;;7.68;5.40;;;;;;;19.58;84.95;101905.63;5100265;28;20019;-57
2023/08/22 00:51:22;;;;;;;7.10;5.07;;;;;;;19.61;84.54;101917.03;5111375;28;20053;-57
2023/08/22 00:53:50;;;;;;;6.28;4.43;;;;;;;19.60;84.61;101903.66;5113856;28;20054;-57
2023/08/22 00:56:16;;;;;;;9.82;4.97;;;;;;;19.64;84.02;101908.66;5115204;28;20067;-57
2023/08/22 00:58:41;;;;;;;7.93;5.05;;;;;;;19.59;84.08;101905.53;5112094;28;20456;-57
2023/08/22 01:01:07;;;;;;;8.45;5.22;;;;;;;19.59;83.89;101902.81;5114078;28;20023;-58
2023/08/22 01:03:34;;;;;;;11.80;5.28;;;;;;;19.57;83.97;101907.47;5114951;28;20432;-57
2023/08/22 01:06:08;;;;;;;7.72;5.07;;;;;;;19.60;83.67;101909.91;5113549;28;20023;-57
2023/08/22 01:08:39;;;;;;;6.13;4.43;;;;;;;19.59;83.71;101899.25;5113248;28;20019;-57
2023/08/22 01:11:16;;;;;;;6.10;4.72;;;;;;;19.56;83.85;101907.59;5112143;28;20047;-57
2023/08/22 01:13:46;;;;;;;7.80;4.90;;;;;;;19.50;83.54;101899.06;5114831;28;20080;-57
2023/08/22 01:16:12;;;;;;;7.70;4.72;;;;;;;19.53;83.39;101903.34;5114854;28;20083;-57
2023/08/22 01:18:40;;;;;;;7.38;4.32;;;;;;;19.44;83.56;101909.47;5110546;28;20062;-57
2023/08/22 01:21:05;;;;;;;10.18;5.22;;;;;;;19.27;83.88;101900.97;5093092;28;20501;-57
2023/08/22 01:23:33;;;;;;;7.45;4.90;;;;;;;19.36;83.97;101907.44;5094306;28;20036;-57
2023/08/22 01:26:03;;;;;;;7.82;5.38;;;;;;;19.27;84.38;101898.28;5093150;28;20024;-57
2023/08/22 01:28:39;;;;;;;7.90;5.28;;;;;;;19.26;84.02;101906.47;5094613;28;20031;-57
2023/08/22 01:31:39;;;;;;;10.75;5.47;;;;;;;19.28;84.31;101891.88;5110684;27;20093;-57
2023/08/22 01:34:13;;;;;;;9.52;6.30;;;;;;;19.24;84.83;101893.13;5093934;28;20474;-58
2023/08/22 01:36:42;;;;;;;12.90;6.78;;;;;;;19.14;84.71;101878.69;5104310;28;20446;-57
2023/08/22 01:39:12;;;;;;;9.02;4.85;;;;;;;19.21;85.09;101887.16;5094114;28;20034;-58
2023/08/22 01:41:37;;;;;;;9.95;5.80;;;;;;;19.24;84.47;101892.28;5111315;27;20024;-58
2023/08/22 01:44:03;;;;;;;5.82;4.93;;;;;;;19.22;84.68;101888.84;5113818;28;20477;-57
2023/08/22 01:46:29;;;;;;;9.70;5.55;;;;;;;19.12;85.29;101888.78;5099120;28;20041;-58
2023/08/22 01:48:55;;;;;;;8.75;5.13;;;;;;;19.18;85.28;101892.81;5105659;28;20024;-57
2023/08/22 01:51:20;;;;;;;6.20;4.97;;;;;;;19.17;85.00;101893.75;5104737;27;20028;-57
2023/08/22 01:53:46;;;;;;;9.07;5.75;;;;;;;19.14;85.04;101888.63;5109555;27;20115;-57
2023/08/22 01:56:11;;;;;;;8.02;6.22;;;;;;;19.11;85.50;101888.88;5117161;27;20102;-58
2023/08/22 01:58:37;;;;;;;11.32;5.75;;;;;;;19.08;85.57;101889.13;5112087;28;20016;-57
2023/08/22 02:01:12;;;;;;;8.93;6.32;;;;;;;19.13;85.60;101887.78;5097874;28;20038;-57
2023/08/22 02:03:41;;;;;;;8.63;5.55;;;;;;;19.03;85.95;101884.09;5112863;28;20500;-57
2023/08/22 02:06:07;;;;;;;8.88;5.97;;;;;;;19.11;86.04;101881.63;5114425;27;20031;-57
2023/08/22 02:08:35;;;;;;;10.88;6.25;;;;;;;19.11;86.19;101889.72;5104150;27;20035;-57
2023/08/22 02:11:01;;;;;;;9.40;6.05;;;;;;;19.07;86.19;101880.19;5094736;27;20042;-57
2023/08/22 02:13:26;;;;;;;9.57;6.70;;;;;;;18.99;86.32;101866.47;5099610;28;20021;-58
2023/08/22 02:15:52;;;;;;;7.00;6.30;;;;;;;19.01;86.53;101878.00;5112562;27;20043;-57
2023/08/22 02:18:17;;;;;;;7.55;5.75;;;;;;;18.92;87.10;101873.38;5091871;28;20016;-57
2023/08/22 02:20:43;;;;;;;7.90;6.40;;;;;;;19.01;86.70;101875.31;5103169;27;20028;-57
2023/08/22 02:23:09;;;;;;;10.07;6.05;;;;;;;18.98;87.40;101865.63;5100846;28;20470;-57
2023/08/22 02:25:35;;;;;;;8.27;6.10;;;;;;;18.93;86.99;101861.59;5111076;27;20039;-57
2023/08/22 02:28:02;;;;;;;9.23;6.13;;;;;;;18.84;87.55;101855.97;5112020;27;20512;-57
2023/08/22 02:30:27;;;;;;;9.05;6.00;;;;;;;18.94;87.44;101863.28;5110560;28;20509;-57
2023/08/22 02:32:52;;;;;;;8.63;6.18;;;;;;;18.95;87.13;101865.88;5103301;27;20040;-58
2023/08/22 02:35:19;;;;;;;6.60;5.72;;;;;;;18.87;87.38;101859.41;5096112;27;20034;-57
2023/08/22 02:37:45;;;;;;;7.78;6.45;;;;;;;18.84;87.48;101860.50;5113617;27;20396;-57
2023/08/22 02:40:11;;;;;;;11.98;6.75;;;;;;;18.83;87.82;101862.34;5110901;28;20027;-57
2023/08/22 02:42:36;;;;;;;9.63;6.78;;;;;;;18.80;87.54;101849.13;5113462;28;20128;-57
2023/08/22 02:45:03;;;;;;;10.82;6.53;;;;;;;18.83;87.67;101867.75;5113718;27;20103;-57
2023/08/22 02:47:29;;;;;;;8.55;6.72;;;;;;;18.74;87.82;101856.88;5112963;28;20027;-57
2023/08/22 02:49:54;;;;;;;11.98;6.60;;;;;;;18.82;87.69;101865.16;5098176;28;20024;-57
2023/08/22 02:52:20;;;;;;;12.55;7.30;;;;;;;18.79;87.97;101863.56;5092875;27;20111;-57
2023/08/22 02:54:45;;;;;;;13.20;7.07;;;;;;;18.76;87.82;101863.81;5111373;27;21462;-57
2023/08/22 02:57:11;;;;;;;9.55;7.03;;;;;;;18.77;87.96;101862.84;5115010;27;20481;-57
2023/08/22 02:59:36;;;;;;;12.20;8.18;;;;;;;18.72;88.37;101869.56;5112095;28;20019;-57
2023/08/22 03:02:01;;;;;;;8.25;7.03;;;;;;;18.75;87.91;101858.56;5114869;27;20055;-57
2023/08/22 03:04:27;;;;;;;9.90;7.13;;;;;;;18.69;88.24;101853.66;5112655;28;20020;-57
2023/08/22 03:06:52;;;;;;;13.80;7.75;;;;;;;18.69;88.36;101859.91;5111261;28;20382;-57
2023/08/22 03:09:18;;;;;;;11.90;6.80;;;;;;;18.52;89.22;101865.78;5112063;27;20092;-57
2023/08/22 03:11:43;;;;;;;9.75;7.72;;;;;;;18.63;88.86;101873.88;5093475;28;20111;-57
2023/08/22 03:14:09;;;;;;;10.32;7.45;;;;;;;18.55;89.36;101871.78;5115990;27;20043;-57
2023/08/22 03:16:34;;;;;;;8.85;7.45;;;;;;;18.60;89.09;101866.03;5098671;28;20068;-57
2023/08/22 03:18:59;;;;;;;16.70;7.22;;;;;;;18.65;88.75;101869.22;5109698;27;20463;-57
2023/08/22 03:21:25;;;;;;;9.98;7.78;;;;;;;18.60;88.81;101861.50;5091699;28;20478;-58
2023/08/22 03:23:50;;;;;;;8.52;6.93;;;;;;;18.46;88.88;101861.75;5091700;28;20132;-57
2023/08/22 03:26:18;;;;;;;9.55;7.20;;;;;;;18.51;89.22;101867.63;5104213;27;20026;-57
2023/08/22 03:28:43;;;;;;;11.68;7.45;;;;;;;18.50;89.44;101857.84;5110197;28;20478;-57
2023/08/22 03:31:09;;;;;;;10.27;7.70;;;;;;;18.49;88.85;101850.72;5094885;28;20058;-57
2023/08/22 03:33:34;;;;;;;8.90;7.57;;;;;;;18.48;89.20;101862.50;5106722;28;20027;-57
2023/08/22 03:36:00;;;;;;;8.38;7.57;;;;;;;18.44;89.02;101865.53;5102477;28;20444;-57
2023/08/22 03:38:28;;;;;;;7.85;7.05;;;;;;;18.45;88.99;101867.28;5110393;27;20031;-57
2023/08/22 03:40:55;;;;;;;9.52;7.28;;;;;;;18.34;89.37;101871.66;5108370;28;20027;-57
2023/08/22 03:43:21;;;;;;;10.38;7.80;;;;;;;18.33;89.10;101856.50;5093248;28;20027;-57
2023/08/22 03:45:47;;;;;;;15.32;8.30;;;;;;;18.35;89.31;101859.03;5094103;28;20024;-57
2023/08/22 03:48:13;;;;;;;12.05;7.85;;;;;;;18.29;89.25;101865.78;5114746;28;20088;-57
2023/08/22 03:50:39;;;;;;;12.05;7.95;;;;;;;18.26;89.46;101854.41;5093155;28;20491;-57
2023/08/22 03:53:05;;;;;;;12.35;7.90;;;;;;;18.26;89.67;101857.94;5112080;28;20019;-57
2023/08/22 03:55:31;;;;;;;12.63;8.20;;;;;;;18.22;89.48;101861.88;5109502;28;20077;-57
2023/08/22 03:57:58;;;;;;;12.50;8.32;;;;;;;18.20;89.34;101857.59;5108972;28;20390;-57
2023/08/22 04:00:24;;;;;;;10.25;8.35;;;;;;;18.20;89.68;101862.97;5108895;28;20019;-57
2023/08/22 04:02:54;;;;;;;9.48;8.48;;;;;;;17.90;90.46;101854.47;5098537;27;20094;-57
2023/08/22 04:05:25;;;;;;;10.27;7.95;;;;;;;18.08;89.70;101860.25;5104170;28;20059;-57
2023/08/22 04:07:51;;;;;;;10.32;8.20;;;;;;;18.02;89.62;101863.44;5115351;27;20614;-57
2023/08/22 04:10:18;;;;;;;12.32;9.02;;;;;;;17.95;89.81;101845.22;5101952;28;20458;-57
2023/08/22 04:12:43;;;;;;;9.38;8.48;;;;;;;18.00;89.83;101854.66;5109568;27;20059;-57
2023/08/22 04:15:10;;;;;;;15.48;9.00;;;;;;;17.95;89.77;101859.53;5116116;27;20106;-57
2023/08/22 04:17:38;;;;;;;14.02;9.00;;;;;;;17.91;89.99;101856.22;5101438;28;20027;-57
2023/08/22 04:20:06;;;;;;;11.27;8.15;;;;;;;17.87;89.98;101857.41;5107742;28;20040;-57
2023/08/22 04:22:31;;;;;;;11.35;9.25;;;;;;;17.81;90.19;101857.91;5103238;27;20036;-57
2023/08/22 04:24:57;;;;;;;10.38;9.27;;;;;;;17.75;90.25;101849.41;5106119;27;20111;-57
2023/08/22 04:27:24;;;;;;;10.10;8.30;;;;;;;17.70;89.69;101837.16;5114163;27;20019;-57
2023/08/22 04:29:50;;;;;;;10.25;8.73;;;;;;;17.80;89.89;101847.28;5108370;27;20031;-57
2023/08/22 04:32:15;;;;;;;9.02;8.13;;;;;;;17.77;89.80;101839.41;5110677;27;20093;-57
2023/08/22 04:34:41;;;;;;;10.73;8.18;;;;;;;17.75;89.76;101838.66;5112231;28;20397;-57
2023/08/22 04:37:08;;;;;;;14.35;8.88;;;;;;;17.66;90.24;101846.44;5104780;27;20106;-57
2023/08/22 04:39:34;;;;;;;12.80;9.95;;;;;;;17.65;90.48;101855.50;5114695;27;20489;-57
2023/08/22 04:41:59;;;;;;;10.57;9.07;;;;;;;17.62;90.60;101849.50;5095144;28;20056;-57
2023/08/22 04:44:24;;;;;;;11.00;9.52;;;;;;;17.70;90.32;101845.22;5113605;27;20103;-57
2023/08/22 04:46:50;;;;;;;11.25;10.13;;;;;;;17.59;90.63;101855.97;5108075;28;20023;-57
2023/08/22 04:49:15;;;;;;;10.82;9.70;;;;;;;17.61;90.83;101854.00;5113952;28;20500;-57
2023/08/22 04:51:41;;;;;;;12.30;9.60;;;;;;;17.62;90.83;101853.06;5097183;28;20028;-57
2023/08/22 04:54:06;;;;;;;13.55;9.57;;;;;;;17.60;90.97;101859.53;5094539;28;20483;-57
2023/08/22 04:56:34;;;;;;;13.75;9.60;;;;;;;17.57;90.97;101862.44;5094745;28;20573;-57
2023/08/22 04:58:59;;;;;;;12.18;9.70;;;;;;;17.50;91.58;101851.31;5097737;28;20454;-57
2023/08/22 05:01:27;;;;;;;10.48;9.52;;;;;;;17.46;91.28;101849.81;5113910;28;20024;-57
2023/08/22 05:03:52;;;;;;;12.68;10.40;;;;;;;17.58;91.29;101861.47;5114997;28;20027;-57
2023/08/22 05:06:17;;;;;;;12.25;9.98;;;;;;;17.44;92.11;101863.41;5115076;28;20027;-57
2023/08/22 05:08:43;;;;;;;11.25;10.15;;;;;;;17.35;92.26;101869.44;5113709;28;20061;-57
2023/08/22 05:11:08;;;;;;;10.98;9.77;;;;;;;17.53;92.24;101864.53;5113351;28;20028;-57
2023/08/22 05:13:33;;;;;;;11.98;10.05;;;;;;;17.56;92.13;101860.72;5114631;28;20023;-57
2023/08/22 05:15:59;;;;;;;11.75;10.15;;;;;;;17.46;92.84;101861.41;5114390;28;20510;-57
2023/08/22 05:18:24;;;;;;;13.70;10.95;;;;;;;17.54;92.63;101860.84;5113702;28;20027;-57
2023/08/22 05:20:53;;;;;;;13.20;10.75;;;;;;;17.45;93.38;101865.09;5092909;28;20012;-57
2023/08/22 05:23:18;;;;;;;18.92;12.38;;;;;;;17.51;93.84;101865.63;5108336;28;20040;-57
2023/08/22 05:25:43;;;;;;;17.30;11.80;;;;;;;17.49;93.59;101839.66;5111258;27;20026;-57
2023/08/22 05:28:09;;;;;;;14.68;11.73;;;;;;;17.58;93.45;101854.25;5123219;27;20015;-57
2023/08/22 05:30:38;;;;;;;12.98;11.35;;;;;;;17.66;93.80;101864.44;5097109;28;20040;-57
2023/08/22 05:33:05;;;;;;;15.30;12.05;;;;;;;17.54;94.15;101857.31;5093103;28;20466;-57
2023/08/22 05:35:30;;;;;;;15.02;11.93;;;;;;;17.71;94.00;101857.72;5099783;28;20289;-58
2023/08/22 05:37:55;;;;;;;13.05;11.45;;;;;;;17.82;93.66;101858.75;5107702;28;20443;-57
2023/08/22 05:40:21;;;;;;;15.00;11.45;;;;;;;17.80;93.95;101856.19;5108605;28;20031;-57
2023/08/22 05:42:46;;;;;;;12.77;11.43;;;;;;;17.95;93.38;101850.59;5110065;28;20110;-58
2023/08/22 05:45:12;;;;;;;16.02;12.05;;;;;;;18.01;93.48;101853.66;5094128;28;20024;-57
2023/08/22 05:47:37;;;;;;;14.40;10.90;;;;;;;18.07;92.99;101849.63;5103737;28;20024;-57
2023/08/22 05:50:04;;;;;;;13.80;11.43;;;;;;;18.05;93.42;101844.34;5114121;28;20095;-57
2023/08/22 05:52:30;;;;;;;16.73;12.65;;;;;;;18.24;92.93;101859.06;5112466;28;20031;-57
2023/08/22 05:54:55;;;;;;;14.05;11.93;;;;;;;18.25;92.83;101868.84;5113596;27;20427;-57
2023/08/22 05:57:22;;;;;;;13.95;11.02;;;;;;;18.31;92.76;101871.91;5103442;28;20056;-57
2023/08/22 05:59:48;;;;;;;13.60;11.30;;;;;;;18.48;92.19;101864.34;5095834;28;20028;-57
2023/08/22 06:02:14;;;;;;;15.77;10.85;;;;;;;18.56;91.58;101867.25;5094738;28;20031;-57
2023/08/22 06:04:39;;;;;;;15.15;11.25;;;;;;;18.55;91.40;101858.31;5103381;28;20020;-57
2023/08/22 06:07:05;;;;;;;15.00;11.15;;;;;;;18.61;90.74;101862.34;5111526;28;20046;-57
2023/08/22 06:09:31;;;;;;;15.77;10.98;;;;;;;18.73;89.67;101877.53;5100872;28;20034;-57
2023/08/22 06:11:56;;;;;;;13.10;11.07;;;;;;;18.72;90.51;101881.19;5107207;28;20024;-57
2023/08/22 06:14:22;;;;;;;12.50;11.05;;;;;;;18.72;90.87;101881.19;5108206;27;20030;-57
2023/08/22 06:16:47;;;;;;;18.05;10.80;;;;;;;18.84;90.48;101880.22;5114204;27;20016;-57
2023/08/22 06:19:13;;;;;;;14.20;10.65;;;;;;;18.87;89.50;101873.75;5113625;28;20019;-57
2023/08/22 06:21:38;;;;;;;15.15;10.35;;;;;;;18.98;88.60;101876.41;5113755;28;20076;-57
2023/08/22 06:24:04;;;;;;;17.15;10.93;;;;;;;19.10;88.71;101879.09;5102299;28;20107;-57
2023/08/22 06:26:30;;;;;;;14.32;10.60;;;;;;;19.09;89.39;101877.34;5092352;28;20090;-57
2023/08/22 06:28:55;;;;;;;14.55;9.98;;;;;;;19.24;87.34;101873.41;5091196;28;20024;-57
2023/08/22 06:31:21;;;;;;;12.85;10.30;;;;;;;19.31;88.51;101876.44;5110380;28;20111;-57
2023/08/22 06:33:46;;;;;;;15.43;9.35;;;;;;;19.41;87.63;101880.94;5103801;28;20070;-59
2023/08/22 06:36:14;;;;;;;12.85;9.07;;;;;;;19.44;87.09;101883.38;5104386;28;20474;-59
2023/08/22 06:38:40;;;;;;;15.65;9.88;;;;;;;19.49;87.52;101888.38;5091012;28;20024;-59
2023/08/22 06:41:06;;;;;;;12.07;8.52;;;;;;;19.52;85.91;101877.31;5091433;28;20666;-58
2023/08/22 06:43:31;;;;;;;11.95;8.35;;;;;;;19.52;87.75;101890.81;5091288;28;20035;-58
2023/08/22 06:45:59;;;;;;;10.05;8.32;;;;;;;19.70;86.59;101897.38;5108846;28;20034;-57
2023/08/22 06:48:26;;;;;;;13.10;8.70;;;;;;;19.77;86.58;101899.59;5108311;27;20091;-57
2023/08/22 06:50:52;;;;;;;10.32;7.70;;;;;;;19.78;86.35;101885.94;5110640;28;20538;-57
2023/08/22 06:53:17;;;;;;;10.95;7.15;;;;;;;19.93;82.42;101906.22;5109339;28;20107;-57
2023/08/22 06:55:46;;;;;;;10.63;5.95;;;;;;;19.94;82.89;101899.84;5100990;28;20038;-57
2023/08/22 06:58:12;;;;;;;10.82;6.18;;;;;;;20.04;83.17;101913.41;5092365;28;20081;-56
2023/08/22 07:00:37;;;;;;;6.93;5.47;;;;;;;20.13;81.78;101920.72;5106949;28;20489;-57
2023/08/22 07:03:03;;;;;;;7.60;5.38;;;;;;;20.18;82.21;101923.88;5111526;28;20114;-56
2023/08/22 07:05:29;;;;;;;11.27;5.85;;;;;;;20.26;80.72;101920.50;5106243;28;20027;-56
2023/08/22 07:07:54;;;;;;;7.65;5.50;;;;;;;20.38;79.33;101923.97;5112336;27;20027;-56
2023/08/22 07:10:20;;;;;;;9.35;5.28;;;;;;;20.46;79.55;101924.16;5112096;28;20171;-57
2023/08/22 07:12:45;;;;;;;8.73;4.70;;;;;;;20.57;77.20;101920.53;5099839;28;20390;-57
2023/08/22 07:15:11;;;;;;;8.23;3.78;;;;;;;20.63;74.79;101928.97;5099757;28;20828;-57
2023/08/22 07:17:36;;;;;;;6.30;3.10;;;;;;;20.71;73.28;101933.69;5095100;27;20020;-57
2023/08/22 07:20:04;;;;;;;5.03;2.50;;;;;;;20.78;68.92;101936.72;5093103;28;20482;-60
2023/08/22 07:22:30;;;;;;;11.55;2.92;;;;;;;20.86;69.96;101926.91;5107374;28;20036;-60
2023/08/22 07:24:55;;;;;;;4.18;2.40;;;;;;;20.84;71.51;101931.59;5102655;28;20062;-60
2023/08/22 07:27:21;;;;;;;5.38;3.13;;;;;;;20.88;70.08;101915.94;5106203;28;20097;-64
2023/08/22 07:29:47;;;;;;;8.60;3.90;;;;;;;20.92;71.82;101924.66;5093380;28;20021;-64
2023/08/22 07:32:12;;;;;;;8.63;4.78;;;;;;;20.95;72.00;101919.81;5089338;28;20101;-64
2023/08/22 07:34:37;;;;;;;9.32;4.30;;;;;;;21.01;71.91;101921.97;5107507;28;20023;-64
2023/08/22 07:37:05;;;;;;;8.95;5.55;;;;;;;21.14;72.14;101924.41;5095972;28;20107;-64
2023/08/22 07:39:31;;;;;;;11.75;6.20;;;;;;;21.27;71.46;101918.75;5090791;28;20495;-64
2023/08/22 07:41:56;;;;;;;10.75;6.15;;;;;;;21.33;69.95;101919.03;5102183;27;20031;-64
2023/08/22 07:44:23;;;;;;;12.38;7.32;;;;;;;21.40;70.21;101926.63;5104384;28;20500;-57
2023/08/22 07:46:50;;;;;;;9.80;6.57;;;;;;;21.48;70.19;101926.78;5111183;28;20531;-58
2023/08/22 07:49:15;;;;;;;11.93;6.85;;;;;;;21.54;70.14;101924.34;5111857;28;20023;-58
2023/08/22 07:51:40;;;;;;;14.77;7.80;;;;;;;21.43;69.13;101913.66;5102816;28;20031;-58
2023/08/22 07:54:09;;;;;;;14.30;8.13;;;;;;;21.54;68.96;101927.06;5094149;28;20028;-58
2023/08/22 07:56:35;;;;;;;13.50;7.70;;;;;;;21.57;68.47;101934.06;5108866;28;20129;-58
2023/08/22 07:59:00;;;;;;;14.32;7.60;;;;;;;21.49;71.14;101929.34;5110388;28;20091;-58
2023/08/22 08:01:26;;;;;;;13.95;6.32;;;;;;;21.51;70.07;101912.97;5111889;28;20102;-58
2023/08/22 08:03:52;;;;;;;10.60;6.32;;;;;;;21.44;68.47;101925.34;5108473;28;20031;-63
2023/08/22 08:06:17;;;;;;;9.60;5.93;;;;;;;21.45;69.20;101929.78;5091299;28;20535;-65
2023/08/22 08:08:43;;;;;;;11.48;6.05;;;;;;;21.42;69.31;101932.78;5089392;28;20028;-61
2023/08/22 08:11:10;;;;;;;10.07;5.40;;;;;;;21.41;68.36;101933.75;5090223;28;20644;-65
2023/08/22 08:13:36;;;;;;;9.75;5.05;;;;;;;21.34;69.56;101930.72;5090894;28;20027;-64
2023/08/22 08:16:01;;;;;;;8.95;4.50;;;;;;;21.30;70.66;101929.31;5089949;28;20028;-63
2023/08/22 08:18:27;;;;;;;10.05;5.13;;;;;;;21.36;71.12;101939.59;5091239;28;20050;-67
2023/08/22 08:20:52;;;;;;;10.73;5.22;;;;;;;21.33;69.51;101932.56;5090903;28;20048;-64
2023/08/22 08:23:17;;;;;;;7.05;4.65;;;;;;;21.36;70.66;101933.31;5091335;28;20031;-61
2023/08/22 08:25:43;;;;;;;11.30;5.28;;;;;;;21.29;71.02;101927.56;5091556;28;20024;-62
2023/08/22 08:28:09;;;;;;;8.05;5.25;;;;;;;21.37;71.16;101941.28;5091279;28;20020;-65
2023/08/22 08:30:34;;;;;;;9.77;5.18;;;;;;;21.37;71.40;101941.28;5090778;28;20040;-65
2023/08/22 08:33:03;;;;;;;16.48;5.57;;;;;;;21.42;71.67;101947.16;5089811;28;20048;-60
2023/08/22 08:35:29;;;;;;;13.15;5.55;;;;;;;21.38;71.51;101950.28;5097595;28;20074;-67
2023/08/22 08:37:57;;;;;;;11.48;5.47;;;;;;;21.41;72.41;101944.56;5090765;28;20020;-61
2023/08/22 08:40:22;;;;;;;8.45;4.50;;;;;;;21.50;72.50;101950.03;5090404;28;20134;-60
2023/08/22 08:42:48;;;;;;;7.88;4.50;;;;;;;21.47;71.63;101938.59;5090953;28;20047;-60
2023/08/22 08:45:15;;;;;;;14.38;4.88;;;;;;;21.55;72.85;101941.44;5092064;28;20030;-58
2023/08/22 08:47:42;;;;;;;10.90;5.45;;;;;;;21.58;72.23;101940.31;5091104;28;20074;-59
2023/08/22 08:50:09;;;;;;;11.43;4.88;;;;;;;21.59;71.18;101940.19;5109837;28;20072;-59
2023/08/22 08:52:37;;;;;;;9.63;5.25;;;;;;;21.61;70.78;101937.31;5113781;28;20696;-59
2023/08/22 08:55:07;;;;;;;13.15;6.20;;;;;;;21.60;70.16;101941.03;5094005;28;20028;-59
2023/08/22 08:57:35;;;;;;;11.73;5.38;;;;;;;21.60;71.25;101936.47;5094352;28;20053;-58
2023/08/22 09:00:03;;;;;;;13.60;5.28;;;;;;;21.66;71.86;101944.03;5110501;28;20020;-59
2023/08/22 09:02:29;;;;;;;12.95;5.60;;;;;;;21.73;71.36;101933.47;5093310;28;20387;-59
2023/08/22 09:04:54;;;;;;;11.57;6.05;;;;;;;21.74;70.46;101946.03;5092966;28;20016;-59
2023/08/22 09:07:20;;;;;;;17.10;6.18;;;;;;;21.80;69.58;101952.72;5094245;28;20372;-59
2023/08/22 09:09:45;;;;;;;17.80;7.20;;;;;;;21.69;70.04;101938.31;5093708;28;20035;-59
2023/08/22 09:12:11;;;;;;;12.48;6.30;;;;;;;21.70;70.58;101923.78;5095605;28;20023;-59
2023/08/22 09:14:47;;;;;;;14.38;6.63;;;;;;;21.80;72.30;101948.16;5095756;28;20387;-59
2023/08/22 09:17:14;;;;;;;14.85;7.45;;;;;;;21.81;70.81;101943.59;5094440;28;20419;-59
2023/08/22 09:19:40;;;;;;;13.77;8.55;;;;;;;21.80;70.72;101942.75;5094113;28;20387;-58
2023/08/22 09:22:05;;;;;;;15.13;9.40;;;;;;;21.81;70.22;101947.16;5093023;28;20016;-59
2023/08/22 09:24:32;;;;;;;16.23;8.15;;;;;;;21.88;69.97;101950.13;5094855;28;20102;-59
2023/08/22 09:27:00;;;;;;;19.40;8.02;;;;;;;22.02;69.95;101948.84;5094096;28;20035;-58
2023/08/22 09:29:32;;;;;;;15.80;8.20;;;;;;;22.10;71.41;101949.00;5092812;28;20558;-59
2023/08/22 09:32:01;;;;;;;13.32;7.68;;;;;;;22.16;71.96;101953.81;5093865;28;20392;-59
2023/08/22 09:34:26;;;;;;;13.70;8.70;;;;;;;22.19;70.84;101954.41;5093147;28;20471;-59
2023/08/22 09:36:53;;;;;;;14.73;7.80;;;;;;;22.26;70.96;101948.41;5105179;28;20289;-59
2023/08/22 09:39:19;;;;;;;13.88;8.48;;;;;;;22.32;71.62;101932.41;5114051;28;20016;-64
2023/08/22 09:41:47;;;;;;;13.77;8.88;;;;;;;22.46;70.87;101941.94;5114449;28;20030;-58
2023/08/22 09:44:14;;;;;;;17.88;9.27;;;;;;;22.54;69.86;101946.63;5107555;28;20020;-59
2023/08/22 09:46:41;;;;;;;16.17;8.55;;;;;;;22.72;69.38;101950.25;5093991;28;20024;-60
2023/08/22 09:49:10;;;;;;;12.98;7.82;;;;;;;22.82;68.83;101956.47;5101031;28;20026;-58
2023/08/22 09:51:36;;;;;;;14.85;7.88;;;;;;;22.92;69.09;101952.91;5113112;28;20034;-58
2023/08/22 09:54:03;;;;;;;13.10;7.47;;;;;;;22.93;67.96;101958.16;5112480;28;20403;-59
2023/08/22 09:56:31;;;;;;;14.27;6.80;;;;;;;23.13;67.38;101957.06;5106884;28;20024;-59
2023/08/22 09:58:59;;;;;;;14.15;7.43;;;;;;;23.26;66.43;101958.56;5093437;28;20111;-59
2023/08/22 10:01:24;;;;;;;16.05;7.90;;;;;;;23.23;64.73;101959.72;5092660;28;20024;-59
2023/08/22 10:03:53;;;;;;;15.18;7.75;;;;;;;23.08;65.52;101962.09;5096838;28;20436;-60
2023/08/22 10:06:30;;;;;;;11.27;7.07;;;;;;;23.05;67.03;101956.13;5113862;28;20035;-58
2023/08/22 10:08:57;;;;;;;16.38;7.55;;;;;;;22.94;64.59;101954.44;5113274;28;20057;-58
2023/08/22 10:11:28;;;;;;;13.25;6.40;;;;;;;23.07;64.11;101954.97;5112291;28;20031;-58
2023/08/22 10:13:53;;;;;;;11.63;5.60;;;;;;;23.13;64.59;101950.81;5111807;28;20065;-58
2023/08/22 10:16:21;;;;;;;7.35;4.38;;;;;;;23.11;62.13;101950.09;5113805;28;20123;-59
2023/08/22 10:18:47;;;;;;;13.45;4.10;;;;;;;23.28;63.69;101948.41;5112179;28;20551;-58
2023/08/22 10:21:12;;;;;;;10.85;3.38;;;;;;;23.51;61.52;101949.69;5112422;28;20031;-58
2023/08/22 10:23:55;;;;;;;6.47;2.75;;;;;;;23.44;60.91;101945.00;5113177;28;20042;-58
2023/08/22 10:26:21;;;;;;;7.93;2.80;;;;;;;23.38;57.44;101953.78;5094647;28;20089;-59
2023/08/22 10:29:18;;;;;;;7.22;2.55;;;;;;;23.40;58.97;101958.06;5091743;28;20026;-58
2023/08/22 10:32:04;;;;;;;8.65;2.67;;;;;;;23.35;59.48;101954.94;5092470;28;20498;-59
2023/08/22 10:34:38;;;;;;;5.35;2.25;;;;;;;23.26;58.93;101947.72;5082059;28;20051;-58
2023/08/22 10:37:20;;;;;;;5.97;2.80;;;;;;;23.34;59.97;101955.94;5105844;27;20035;-58
2023/08/22 10:39:47;;;;;;;6.63;3.13;;;;;;;23.41;58.88;101950.75;5091570;28;20024;-59
2023/08/22 10:42:20;;;;;;;5.35;2.85;;;;;;;23.61;60.67;101940.59;5101468;28;20475;-58
2023/08/22 10:44:49;;;;;;;5.63;2.10;;;;;;;23.78;57.06;101945.19;5097932;28;20028;-59
2023/08/22 10:47:20;;;;;;;5.82;2.15;;;;;;;23.87;57.37;101941.53;5093542;28;20020;-59
2023/08/22 10:50:11;;;;;;;6.57;2.70;;;;;;;23.97;56.30;101946.88;5105526;28;20023;-59
2023/08/22 10:52:39;;;;;;;6.38;2.50;;;;;;;23.83;56.04;101939.31;5111967;28;20474;-59
2023/08/22 10:55:08;;;;;;;6.13;2.88;;;;;;;23.78;55.98;101945.19;5099780;28;20528;-59
2023/08/22 10:57:38;;;;;;;7.95;3.47;;;;;;;23.81;56.47;101939.47;5093495;28;20463;-59
2023/08/22 11:00:13;;;;;;;8.60;2.85;;;;;;;24.03;59.20;101947.13;5090784;28;20031;-59
2023/08/22 11:02:40;;;;;;;6.28;3.30;;;;;;;24.00;56.45;101943.84;5091282;28;20024;-59
2023/08/22 11:05:10;;;;;;;7.80;2.88;;;;;;;24.03;55.88;101940.81;5092412;28;20020;-59
2023/08/22 11:07:36;;;;;;;6.70;2.58;;;;;;;24.06;56.10;101945.06;5092139;28;20016;-59
2023/08/22 11:10:03;;;;;;;9.80;3.00;;;;;;;23.98;56.67;101933.16;5100123;28;20028;-62
2023/08/22 11:12:31;;;;;;;8.85;3.22;;;;;;;24.13;57.25;101944.28;5111281;28;20031;-62
2023/08/22 11:15:02;;;;;;;7.03;2.78;;;;;;;24.14;56.46;101939.72;5103566;28;20024;-61
2023/08/22 11:17:28;;;;;;;3.92;1.80;;;;;;;24.14;54.76;101939.72;5092188;28;20024;-62